createdAt,value
2016-09-01T00:00:21.974Z,1010.02
2016-09-01T00:01:23.990Z,1010.02
2016-09-01T00:02:22.339Z,1010.02
2016-09-01T00:03:22.180Z,1010.05
2016-09-01T00:04:22.019Z,1010.05
2016-09-01T00:05:22.582Z,1010.02
2016-09-01T00:06:21.911Z,1010.04
2016-09-01T00:07:22.381Z,1010.08
2016-09-01T00:08:22.416Z,1010.08
2016-09-01T00:09:22.422Z,1010.08
2016-09-01T00:10:22.663Z,1010.09
2016-09-01T00:11:22.823Z,1010.07
2016-09-01T00:12:22.251Z,1010.12
2016-09-01T00:13:22.478Z,1010.12
2016-09-01T00:14:22.478Z,1010.09
2016-09-01T00:15:22.312Z,1010.09
2016-09-01T00:16:22.408Z,1010.12
2016-09-01T00:17:22.433Z,1010.12
2016-09-01T00:18:22.467Z,1010.16
2016-09-01T00:19:22.631Z,1010.14
2016-09-01T00:20:22.442Z,1010.21
2016-09-01T00:21:22.594Z,1010.17
2016-09-01T00:22:22.571Z,1010.2
2016-09-01T00:23:22.785Z,1010.2
2016-09-01T00:24:22.568Z,1010.17
2016-09-01T00:25:22.810Z,1010.16
2016-09-01T00:26:22.551Z,1010.21
2016-09-01T00:27:22.977Z,1010.19
2016-09-01T00:28:22.593Z,1010.2
2016-09-01T00:29:22.614Z,1010.13
2016-09-01T00:30:22.556Z,1010.12
2016-09-01T00:31:23.175Z,1010.09
2016-09-01T00:32:22.658Z,1010.08
2016-09-01T00:33:22.651Z,1010.06
2016-09-01T00:34:22.933Z,1010.07
2016-09-01T00:35:22.609Z,1010.09
2016-09-01T00:36:22.715Z,1010.06
2016-09-01T00:37:23.584Z,1010.11
2016-09-01T00:38:22.815Z,1010.11
2016-09-01T00:39:23.041Z,1010.09
2016-09-01T00:40:22.991Z,1010.09
2016-09-01T00:41:23.230Z,1010.1
2016-09-01T00:42:22.752Z,1010.1
2016-09-01T00:43:23.159Z,1010.1
2016-09-01T00:44:23.385Z,1010.11
2016-09-01T00:45:22.977Z,1010.1
2016-09-01T00:46:23.334Z,1010.12
2016-09-01T00:47:23.386Z,1010.11
2016-09-01T00:48:23.510Z,1010.1
2016-09-01T00:49:23.222Z,1010.1
2016-09-01T00:50:23.188Z,1010.1
2016-09-01T00:51:23.240Z,1010.12
2016-09-01T00:52:23.363Z,1010.17
2016-09-01T00:53:23.189Z,1010.18
2016-09-01T00:54:24.196Z,1010.19
2016-09-01T00:55:23.428Z,1010.2
2016-09-01T00:56:23.206Z,1010.19
2016-09-01T00:57:23.630Z,1010.17
2016-09-01T00:58:23.388Z,1010.15
2016-09-01T00:59:23.255Z,1010.14
2016-09-01T01:00:23.362Z,1010.12
2016-09-01T01:01:23.314Z,1010.1
2016-09-01T01:02:24.063Z,1010.14
2016-09-01T01:03:23.700Z,1010.16
2016-09-01T01:04:23.343Z,1010.15
2016-09-01T01:05:23.539Z,1010.17
2016-09-01T01:06:23.563Z,1010.18
2016-09-01T01:07:23.528Z,1010.24
2016-09-01T01:08:23.687Z,1010.23
2016-09-01T01:09:23.708Z,1010.25
2016-09-01T01:10:24.369Z,1010.21
2016-09-01T01:11:23.425Z,1010.17
2016-09-01T01:12:23.613Z,1010.17
2016-09-01T01:13:24.668Z,1010.16
2016-09-01T01:14:24.265Z,1010.12
2016-09-01T01:15:24.235Z,1010.1
2016-09-01T01:16:23.647Z,1010.08
2016-09-01T01:17:24.375Z,1010.03
2016-09-01T01:18:24.579Z,1010.1
2016-09-01T01:19:23.712Z,1010.08
2016-09-01T01:20:24.183Z,1010.04
2016-09-01T01:21:23.956Z,1010.03
2016-09-01T01:22:23.726Z,1010.03
2016-09-01T01:23:24.133Z,1010.03
2016-09-01T01:24:24.178Z,1010.05
2016-09-01T01:25:25.464Z,1010.03
2016-09-01T01:26:24.015Z,1010.04
2016-09-01T01:27:24.252Z,1010.05
2016-09-01T01:28:24.275Z,1010
2016-09-01T01:29:24.370Z,1010.05
2016-09-01T01:30:24.036Z,1010.04
2016-09-01T01:31:24.872Z,1010
2016-09-01T01:32:24.396Z,1010.02
2016-09-01T01:33:24.901Z,1010.05
2016-09-01T01:34:24.166Z,1010.02
2016-09-01T01:35:24.795Z,1010.06
2016-09-01T01:36:24.362Z,1010.04
2016-09-01T01:37:24.559Z,1010.06
2016-09-01T01:38:24.298Z,1010.1
2016-09-01T01:39:24.873Z,1010.08
2016-09-01T01:40:24.410Z,1010.05
2016-09-01T01:41:24.488Z,1010.05
2016-09-01T01:42:24.298Z,1010.05
2016-09-01T01:43:24.575Z,1010.05
2016-09-01T01:44:24.610Z,1010.06
2016-09-01T01:45:24.712Z,1010.07
2016-09-01T01:46:25.055Z,1010.14
2016-09-01T01:47:24.845Z,1010.11
2016-09-01T01:48:24.709Z,1010.18
2016-09-01T01:49:24.429Z,1010.15
2016-09-01T01:50:24.693Z,1010.16
2016-09-01T01:51:24.736Z,1010.13
2016-09-01T01:52:24.685Z,1010.14
2016-09-01T01:53:24.497Z,1010.16
2016-09-01T01:54:24.742Z,1010.16
2016-09-01T01:55:24.650Z,1010.18
2016-09-01T01:56:24.965Z,1010.18
2016-09-01T01:57:24.604Z,1010.16
2016-09-01T01:58:24.880Z,1010.13
2016-09-01T01:59:24.770Z,1010.17
2016-09-01T02:00:24.671Z,1010.17
2016-09-01T02:01:25.006Z,1010.17
2016-09-01T02:02:24.566Z,1010.1
2016-09-01T02:03:24.799Z,1010.13
2016-09-01T02:04:25.272Z,1010.14
2016-09-01T02:05:24.712Z,1010.19
2016-09-01T02:06:24.955Z,1010.2
2016-09-01T02:07:24.967Z,1010.18
2016-09-01T02:08:25.444Z,1010.15
2016-09-01T02:09:25.021Z,1010.16
2016-09-01T02:10:25.237Z,1010.16
2016-09-01T02:11:25.014Z,1010.15
2016-09-01T02:12:25.443Z,1010.19
2016-09-01T02:13:25.273Z,1010.17
2016-09-01T02:14:25.063Z,1010.17
2016-09-01T02:15:25.263Z,1010.12
2016-09-01T02:16:25.177Z,1010.11
2016-09-01T02:17:25.997Z,1010.11
2016-09-01T02:18:25.360Z,1010.15
2016-09-01T02:19:25.177Z,1010.18
2016-09-01T02:20:25.369Z,1010.21
2016-09-01T02:21:25.818Z,1010.17
2016-09-01T02:22:25.505Z,1010.2
2016-09-01T02:23:25.187Z,1010.15
2016-09-01T02:24:26.075Z,1010.11
2016-09-01T02:25:25.363Z,1010.15
2016-09-01T02:26:25.322Z,1010.12
2016-09-01T02:27:25.498Z,1010.15
2016-09-01T02:28:25.424Z,1010.17
2016-09-01T02:29:25.481Z,1010.15
2016-09-01T02:30:25.306Z,1010.2
2016-09-01T02:31:25.249Z,1010.24
2016-09-01T02:32:25.323Z,1010.23
2016-09-01T02:33:25.466Z,1010.25
2016-09-01T02:34:25.866Z,1010.24
2016-09-01T02:35:25.940Z,1010.26
2016-09-01T02:36:25.716Z,1010.25
2016-09-01T02:37:26.029Z,1010.29
2016-09-01T02:38:25.968Z,1010.34
2016-09-01T02:39:25.367Z,1010.28
2016-09-01T02:40:25.948Z,1010.3
2016-09-01T02:41:25.724Z,1010.28
2016-09-01T02:42:25.958Z,1010.32
2016-09-01T02:43:25.706Z,1010.33
2016-09-01T02:44:25.846Z,1010.36
2016-09-01T02:45:25.994Z,1010.35
2016-09-01T02:46:25.931Z,1010.34
2016-09-01T02:47:26.273Z,1010.35
2016-09-01T02:48:26.054Z,1010.33
2016-09-01T02:49:25.615Z,1010.36
2016-09-01T02:50:26.075Z,1010.33
2016-09-01T02:51:25.657Z,1010.39
2016-09-01T02:52:26.040Z,1010.37
2016-09-01T02:53:25.703Z,1010.41
2016-09-01T02:54:26.028Z,1010.42
2016-09-01T02:55:26.133Z,1010.4
2016-09-01T02:56:25.730Z,1010.41
2016-09-01T02:57:26.002Z,1010.36
2016-09-01T02:58:25.821Z,1010.39
2016-09-01T02:59:26.141Z,1010.41
2016-09-01T03:00:26.161Z,1010.41
2016-09-01T03:01:26.391Z,1010.43
2016-09-01T03:02:26.155Z,1010.43
2016-09-01T03:03:26.357Z,1010.42
2016-09-01T03:04:26.187Z,1010.42
2016-09-01T03:05:26.143Z,1010.46
2016-09-01T03:06:26.077Z,1010.45
2016-09-01T03:07:26.089Z,1010.41
2016-09-01T03:08:26.552Z,1010.47
2016-09-01T03:09:26.090Z,1010.41
2016-09-01T03:10:26.715Z,1010.4
2016-09-01T03:11:26.254Z,1010.39
2016-09-01T03:12:26.214Z,1010.4
2016-09-01T03:13:26.453Z,1010.39
2016-09-01T03:14:26.442Z,1010.38
2016-09-01T03:15:26.411Z,1010.43
2016-09-01T03:16:26.341Z,1010.47
2016-09-01T03:17:26.526Z,1010.46
2016-09-01T03:18:27.223Z,1010.48
2016-09-01T03:19:26.551Z,1010.49
2016-09-01T03:20:26.538Z,1010.48
2016-09-01T03:21:26.841Z,1010.46
2016-09-01T03:22:26.986Z,1010.45
2016-09-01T03:23:26.676Z,1010.45
2016-09-01T03:24:26.867Z,1010.44
2016-09-01T03:25:26.672Z,1010.41
2016-09-01T03:26:26.609Z,1010.4
2016-09-01T03:27:26.600Z,1010.39
2016-09-01T03:28:26.699Z,1010.37
2016-09-01T03:29:27.185Z,1010.35
2016-09-01T03:30:26.579Z,1010.32
2016-09-01T03:31:27.251Z,1010.3
2016-09-01T03:32:26.711Z,1010.28
2016-09-01T03:33:26.857Z,1010.3
2016-09-01T03:34:26.837Z,1010.3
2016-09-01T03:35:27.269Z,1010.25
2016-09-01T03:36:26.887Z,1010.27
2016-09-01T03:37:27.418Z,1010.25
2016-09-01T03:38:26.755Z,1010.24
2016-09-01T03:39:27.212Z,1010.27
2016-09-01T03:40:27.494Z,1010.24
2016-09-01T03:41:27.058Z,1010.22
2016-09-01T03:42:27.905Z,1010.25
2016-09-01T03:43:27.155Z,1010.24
2016-09-01T03:44:27.281Z,1010.24
2016-09-01T03:45:27.309Z,1010.22
2016-09-01T03:46:27.267Z,1010.17
2016-09-01T03:47:27.226Z,1010.2
2016-09-01T03:48:27.318Z,1010.23
2016-09-01T03:49:27.279Z,1010.26
2016-09-01T03:50:27.393Z,1010.34
2016-09-01T03:51:28.095Z,1010.33
2016-09-01T03:52:27.312Z,1010.36
2016-09-01T03:53:27.247Z,1010.33
2016-09-01T03:54:27.458Z,1010.28
2016-09-01T03:55:27.626Z,1010.27
2016-09-01T03:56:27.316Z,1010.24
2016-09-01T03:57:27.452Z,1010.23
2016-09-01T03:58:27.721Z,1010.26
2016-09-01T03:59:27.432Z,1010.29
2016-09-01T04:00:27.525Z,1010.26
2016-09-01T04:01:27.803Z,1010.31
2016-09-01T04:02:27.790Z,1010.32
2016-09-01T04:03:27.540Z,1010.33
2016-09-01T04:04:27.337Z,1010.37
2016-09-01T04:05:27.389Z,1010.42
2016-09-01T04:06:27.571Z,1010.38
2016-09-01T04:07:27.677Z,1010.4
2016-09-01T04:08:27.712Z,1010.42
2016-09-01T04:09:27.640Z,1010.37
2016-09-01T04:10:27.953Z,1010.37
2016-09-01T04:11:27.925Z,1010.34
2016-09-01T04:12:27.497Z,1010.36
2016-09-01T04:13:28.623Z,1010.38
2016-09-01T04:14:28.546Z,1010.38
2016-09-01T04:15:27.696Z,1010.43
2016-09-01T04:16:28.570Z,1010.4
2016-09-01T04:17:27.784Z,1010.46
2016-09-01T04:18:28.147Z,1010.45
2016-09-01T04:19:27.959Z,1010.45
2016-09-01T04:20:27.994Z,1010.43
2016-09-01T04:21:28.016Z,1010.44
2016-09-01T04:22:28.069Z,1010.39
2016-09-01T04:23:28.095Z,1010.42
2016-09-01T04:24:28.067Z,1010.42
2016-09-01T04:25:28.089Z,1010.42
2016-09-01T04:26:27.996Z,1010.41
2016-09-01T04:27:28.816Z,1010.44
2016-09-01T04:28:28.070Z,1010.45
2016-09-01T04:29:28.845Z,1010.45
2016-09-01T04:30:28.655Z,1010.47
2016-09-01T04:31:27.942Z,1010.47
2016-09-01T04:32:28.191Z,1010.48
2016-09-01T04:33:28.044Z,1010.55
2016-09-01T04:34:28.074Z,1010.57
2016-09-01T04:35:28.138Z,1010.56
2016-09-01T04:36:28.275Z,1010.57
2016-09-01T04:37:28.828Z,1010.56
2016-09-01T04:38:28.722Z,1010.6
2016-09-01T04:39:28.354Z,1010.65
2016-09-01T04:40:28.374Z,1010.65
2016-09-01T04:41:28.702Z,1010.63
2016-09-01T04:42:28.496Z,1010.63
2016-09-01T04:43:29.775Z,1010.61
2016-09-01T04:44:28.637Z,1010.61
2016-09-01T04:45:28.781Z,1010.65
2016-09-01T04:46:28.464Z,1010.63
2016-09-01T04:47:28.406Z,1010.65
2016-09-01T04:48:28.463Z,1010.63
2016-09-01T04:49:28.448Z,1010.64
2016-09-01T04:50:28.463Z,1010.6
2016-09-01T04:51:28.485Z,1010.65
2016-09-01T04:52:28.620Z,1010.62
2016-09-01T04:53:28.772Z,1010.67
2016-09-01T04:54:28.795Z,1010.7
2016-09-01T04:55:28.696Z,1010.65
2016-09-01T04:56:29.256Z,1010.63
2016-09-01T04:57:29.792Z,1010.63
2016-09-01T04:58:28.557Z,1010.61
2016-09-01T04:59:29.030Z,1010.6
2016-09-01T05:00:28.581Z,1010.6
2016-09-01T05:01:30.258Z,1010.54
2016-09-01T05:02:29.201Z,1010.57
2016-09-01T05:03:29.285Z,1010.56
2016-09-01T05:04:28.906Z,1010.55
2016-09-01T05:05:30.070Z,1010.6
2016-09-01T05:06:29.057Z,1010.64
2016-09-01T05:07:29.431Z,1010.63
2016-09-01T05:08:30.003Z,1010.67
2016-09-01T05:09:29.619Z,1010.64
2016-09-01T05:10:29.147Z,1010.65
2016-09-01T05:11:29.192Z,1010.62
2016-09-01T05:12:29.607Z,1010.62
2016-09-01T05:13:29.791Z,1010.61
2016-09-01T05:14:29.490Z,1010.6
2016-09-01T05:15:29.908Z,1010.63
2016-09-01T05:16:29.317Z,1010.67
2016-09-01T05:17:30.179Z,1010.68
2016-09-01T05:18:30.375Z,1010.74
2016-09-01T05:19:29.974Z,1010.71
2016-09-01T05:20:30.598Z,1010.75
2016-09-01T05:21:29.441Z,1010.74
2016-09-01T05:22:30.055Z,1010.79
2016-09-01T05:23:30.275Z,1010.8
2016-09-01T05:24:29.665Z,1010.82
2016-09-01T05:25:29.663Z,1010.8
2016-09-01T05:26:29.341Z,1010.85
2016-09-01T05:27:29.774Z,1010.86
2016-09-01T05:28:29.932Z,1010.89
2016-09-01T05:29:30.199Z,1010.89
2016-09-01T05:30:29.991Z,1010.93
2016-09-01T05:31:29.589Z,1010.94
2016-09-01T05:32:30.785Z,1010.96
2016-09-01T05:33:29.636Z,1010.94
2016-09-01T05:34:29.493Z,1010.94
2016-09-01T05:35:29.924Z,1010.93
2016-09-01T05:36:29.858Z,1010.95
2016-09-01T05:37:29.327Z,1010.94
2016-09-01T05:38:29.724Z,1010.96
2016-09-01T05:39:29.731Z,1010.97
2016-09-01T05:40:29.669Z,1010.99
2016-09-01T05:41:30.057Z,1010.95
2016-09-01T05:42:29.865Z,1010.98
2016-09-01T05:43:29.831Z,1011.02
2016-09-01T05:44:30.516Z,1010.99
2016-09-01T05:45:30.099Z,1011
2016-09-01T05:46:30.945Z,1011.01
2016-09-01T05:47:29.830Z,1011.04
2016-09-01T05:48:30.117Z,1011.06
2016-09-01T05:49:29.877Z,1011.05
2016-09-01T05:50:29.931Z,1011.05
2016-09-01T05:51:30.522Z,1011.04
2016-09-01T05:52:30.086Z,1011.05
2016-09-01T05:53:29.937Z,1011.07
2016-09-01T05:54:30.106Z,1011.1
2016-09-01T05:55:30.185Z,1011.13
2016-09-01T05:56:30.255Z,1011.14
2016-09-01T05:57:29.968Z,1011.11
2016-09-01T05:58:30.205Z,1011.14
2016-09-01T05:59:30.270Z,1011.11
2016-09-01T06:00:30.855Z,1011.14
2016-09-01T06:01:30.333Z,1011.2
2016-09-01T06:02:30.027Z,1011.19
2016-09-01T06:03:30.114Z,1011.16
2016-09-01T06:04:30.659Z,1011.16
2016-09-01T06:05:30.179Z,1011.2
2016-09-01T06:06:30.534Z,1011.21
2016-09-01T06:07:30.763Z,1011.21
2016-09-01T06:08:30.155Z,1011.17
2016-09-01T06:09:30.913Z,1011.24
2016-09-01T06:10:31.107Z,1011.2
2016-09-01T06:11:31.493Z,1011.2
2016-09-01T06:12:30.565Z,1011.21
2016-09-01T06:13:30.919Z,1011.25
2016-09-01T06:14:30.786Z,1011.26
2016-09-01T06:15:30.927Z,1011.29
2016-09-01T06:16:30.975Z,1011.33
2016-09-01T06:17:30.491Z,1011.36
2016-09-01T06:18:31.028Z,1011.35
2016-09-01T06:19:30.988Z,1011.4
2016-09-01T06:20:30.673Z,1011.43
2016-09-01T06:21:30.900Z,1011.48
2016-09-01T06:22:30.537Z,1011.49
2016-09-01T06:23:30.736Z,1011.49
2016-09-01T06:24:31.207Z,1011.52
2016-09-01T06:25:31.066Z,1011.55
2016-09-01T06:26:31.173Z,1011.61
2016-09-01T06:27:30.999Z,1011.67
2016-09-01T06:28:30.681Z,1011.66
2016-09-01T06:29:30.902Z,1011.67
2016-09-01T06:30:31.524Z,1011.66
2016-09-01T06:31:31.045Z,1011.67
2016-09-01T06:32:31.104Z,1011.67
2016-09-01T06:33:30.840Z,1011.66
2016-09-01T06:34:31.679Z,1011.7
2016-09-01T06:35:31.162Z,1011.7
2016-09-01T06:36:31.203Z,1011.72
2016-09-01T06:37:32.033Z,1011.74
2016-09-01T06:38:31.186Z,1011.78
2016-09-01T06:39:31.885Z,1011.77
2016-09-01T06:40:31.339Z,1011.72
2016-09-01T06:41:31.521Z,1011.76
2016-09-01T06:42:31.161Z,1011.76
2016-09-01T06:43:31.872Z,1011.75
2016-09-01T06:44:31.789Z,1011.8
2016-09-01T06:45:31.598Z,1011.78
2016-09-01T06:46:31.576Z,1011.78
2016-09-01T06:47:31.462Z,1011.75
2016-09-01T06:48:31.940Z,1011.79
2016-09-01T06:49:31.462Z,1011.78
2016-09-01T06:50:31.623Z,1011.82
2016-09-01T06:51:31.557Z,1011.84
2016-09-01T06:52:31.556Z,1011.87
2016-09-01T06:53:31.664Z,1011.83
2016-09-01T06:54:32.114Z,1011.84
2016-09-01T06:55:31.415Z,1011.86
2016-09-01T06:56:31.668Z,1011.84
2016-09-01T06:57:31.671Z,1011.83
2016-09-01T06:58:31.427Z,1011.81
2016-09-01T06:59:31.612Z,1011.83
2016-09-01T07:00:31.659Z,1011.81
2016-09-01T07:01:32.204Z,1011.77
2016-09-01T07:02:31.641Z,1011.81
2016-09-01T07:03:31.833Z,1011.72
2016-09-01T07:04:32.852Z,1011.7
2016-09-01T07:05:31.834Z,1011.72
2016-09-01T07:06:31.924Z,1011.75
2016-09-01T07:07:31.805Z,1011.78
2016-09-01T07:08:31.549Z,1011.9
2016-09-01T07:09:32.463Z,1011.9
2016-09-01T07:10:31.692Z,1011.92
2016-09-01T07:11:33.016Z,1011.89
2016-09-01T07:12:31.793Z,1011.88
2016-09-01T07:13:32.156Z,1011.89
2016-09-01T07:14:32.436Z,1011.9
2016-09-01T07:15:31.850Z,1011.92
2016-09-01T07:16:32.274Z,1011.89
2016-09-01T07:17:32.479Z,1011.88
2016-09-01T07:18:32.146Z,1011.88
2016-09-01T07:19:31.860Z,1011.88
2016-09-01T07:20:31.993Z,1011.85
2016-09-01T07:21:32.420Z,1011.87
2016-09-01T07:22:32.403Z,1011.83
2016-09-01T07:23:32.454Z,1011.85
2016-09-01T07:24:32.197Z,1011.89
2016-09-01T07:25:32.333Z,1011.95
2016-09-01T07:26:32.117Z,1011.99
2016-09-01T07:27:32.117Z,1011.98
2016-09-01T07:28:32.738Z,1011.97
2016-09-01T07:29:32.486Z,1011.96
2016-09-01T07:30:32.382Z,1011.96
2016-09-01T07:31:32.391Z,1011.96
2016-09-01T07:32:32.281Z,1011.99
2016-09-01T07:33:32.553Z,1011.99
2016-09-01T07:34:32.698Z,1011.98
2016-09-01T07:35:32.708Z,1011.98
2016-09-01T07:36:32.295Z,1012
2016-09-01T07:37:32.656Z,1012.02
2016-09-01T07:38:33.252Z,1011.99
2016-09-01T07:39:32.544Z,1012.01
2016-09-01T07:40:32.631Z,1012.04
2016-09-01T07:41:32.812Z,1011.98
2016-09-01T07:42:33.124Z,1012
2016-09-01T07:43:32.730Z,1012
2016-09-01T07:44:32.552Z,1011.99
2016-09-01T07:45:32.596Z,1011.99
2016-09-01T07:46:32.639Z,1011.96
2016-09-01T07:47:32.920Z,1011.95
2016-09-01T07:48:32.808Z,1011.95
2016-09-01T07:49:33.285Z,1011.98
2016-09-01T07:50:33.040Z,1012
2016-09-01T07:51:32.884Z,1011.99
2016-09-01T07:52:33.195Z,1011.99
2016-09-01T07:53:32.761Z,1011.97
